Main page
METAR-TAF:

METAR-TAF

Airports :

Tulcea Airport

Tulcea, Romania

latitude: 45-11N, longitude: 028-49E, elevation: 4 m

Current weather observation

The report was made 18 minutes ago, at 17:00 UTC
Wind 5 kt from the South/Southeast
Temperature 21°C
Humidity 60%
Pressure 1013 hPa
Visibility 10 km or more

METAR: LRTC 161700Z AUTO 16005KT 9999 NCD 21/13 Q1013

Time: 20:18 (17:18 UTC)

Forecast

The report was made 3 hours and 18 minutes ago, at 14:00 UTC
Forecast valid from 16 at 15 UTC to 16 at 24 UTC
Wind 4 kt from variable directions
Visibility 10 km or more
no clouds below 1500 m and no cumulonimbus

TAF: LRTC 161400Z 1615/1624 VRB04KT CAVOK

Weather observations and forecasts of more than 4000 airports (METAR and TAF reports).

The available stations are represented by yellow and red dots on the map.

Hover mouse over dot to see the name of the station.

Then click to see weather observations and forecasts.

To change the map : click on the green buttons with a black cross to zoom in, on the green button with a dash to zoom out, or on the green arrows for adjacent maps.


METAR-TAF: